Time;durP1;ratioP1;P1;durP2;ratioP2;P2;SDS_P1;SDS_P2;PMS_P1;PMS_P2;Temp;Humidity;BMP_temperature;BMP_pressure;BME280_temperature;BME280_humidity;BME280_pressure;Samples;Min_cycle;Max_cycle;Signal;HPM_P1;HPM_P2
2022/03/13 00:02:14;;;;;;;;;2.25;2.25;;;;;22.08;36.96;100731.63;5067145;27;51903;-47
2022/03/13 00:04:40;;;;;;;;;4.75;3.00;;;;;22.04;36.93;100727.63;5067113;27;51157;-50
2022/03/13 00:07:09;;;;;;;;;3.25;3.25;;;;;22.01;37.43;100727.25;5064148;28;51395;-49
2022/03/13 00:09:35;;;;;;;;;5.50;3.00;;;;;21.96;37.02;100722.44;5067160;27;52882;-49
2022/03/13 00:12:08;;;;;;;;;5.00;4.00;;;;;21.93;37.29;100730.34;5066160;28;51179;-49
2022/03/13 00:14:34;;;;;;;;;3.00;3.00;;;;;21.87;37.33;100730.19;5070656;27;51032;-50
2022/03/13 00:17:00;;;;;;;;;3.50;3.00;;;;;21.85;37.03;100726.00;5056884;28;51315;-51
2022/03/13 00:19:25;;;;;;;;;3.25;3.25;;;;;21.81;37.43;100724.78;5071795;28;53738;-52
2022/03/13 00:21:53;;;;;;;;;3.00;3.00;;;;;21.78;37.28;100720.59;5067204;27;51218;-49
2022/03/13 00:24:22;;;;;;;;;4.25;4.00;;;;;21.75;37.20;100725.72;5064801;27;51167;-51
2022/03/13 00:26:50;;;;;;;;;3.00;3.00;;;;;21.70;37.39;100729.19;5065178;28;51073;-51
2022/03/13 00:29:15;;;;;;;;;3.00;2.00;;;;;21.68;37.57;100728.59;5063708;27;51607;-53
2022/03/13 00:31:40;;;;;;;;;2.00;2.00;;;;;21.64;37.00;100719.09;5070399;28;51152;-51
2022/03/13 00:34:06;;;;;;;;;2.25;2.25;;;;;21.61;37.06;100720.41;5062717;28;51212;-48
2022/03/13 00:36:32;;;;;;;;;3.00;3.00;;;;;21.59;37.18;100718.97;5064760;28;51887;-48
2022/03/13 00:38:57;;;;;;;;;3.50;3.00;;;;;21.57;37.65;100729.34;5057603;28;51118;-52
2022/03/13 00:41:23;;;;;;;;;3.00;3.00;;;;;21.54;37.51;100719.63;5057245;28;51058;-49
2022/03/13 00:43:48;;;;;;;;;3.50;2.75;;;;;21.51;37.59;100711.00;5063864;27;51163;-51
2022/03/13 00:46:14;;;;;;;;;2.00;2.00;;;;;21.48;37.21;100720.59;5062530;28;50961;-52
2022/03/13 00:48:41;;;;;;;;;4.00;3.00;;;;;21.45;37.14;100712.75;5058814;27;51899;-52
2022/03/13 00:51:06;;;;;;;;;5.00;4.00;;;;;21.43;37.56;100712.16;5066848;27;51211;-52
2022/03/13 00:53:31;;;;;;;;;1.50;1.50;;;;;21.42;37.70;100715.16;5056683;27;51211;-50
2022/03/13 00:55:57;;;;;;;;;3.00;3.00;;;;;21.39;37.33;100708.19;5070697;28;51118;-51
2022/03/13 00:58:22;;;;;;;;;2.75;2.75;;;;;21.37;37.67;100706.75;5062486;27;51070;-52
2022/03/13 01:00:47;;;;;;;;;3.00;2.50;;;;;21.33;37.18;100712.69;5066875;28;51088;-52
2022/03/13 01:03:31;;;;;;;;;5.75;4.00;;;;;21.31;37.15;100709.34;5069534;27;51222;-48
2022/03/13 01:05:58;;;;;;;;;4.00;3.25;;;;;21.29;37.28;100711.50;5062302;28;51424;-50
2022/03/13 01:08:24;;;;;;;;;4.75;3.00;;;;;21.29;37.21;100707.91;5068696;28;51919;-48
2022/03/13 01:10:50;;;;;;;;;3.50;2.00;;;;;21.27;37.29;100710.03;5066581;27;51158;-47
2022/03/13 01:13:15;;;;;;;;;3.00;2.00;;;;;21.24;37.17;100705.78;5059565;28;51320;-52
2022/03/13 01:15:45;;;;;;;;;2.00;2.00;;;;;21.23;37.58;100697.75;5062052;27;51282;-50
2022/03/13 01:18:10;;;;;;;;;4.75;4.00;;;;;21.22;37.28;100698.81;5064078;28;52054;-48
2022/03/13 01:20:35;;;;;;;;;2.50;2.50;;;;;21.20;37.25;100688.03;5072083;27;50999;-48
2022/03/13 01:23:01;;;;;;;;;2.00;2.00;;;;;21.18;37.40;100692.94;5062368;28;51289;-52
2022/03/13 01:25:26;;;;;;;;;4.25;2.25;;;;;21.16;37.24;100691.50;5067784;28;51373;-50
2022/03/13 01:27:51;;;;;;;;;2.00;2.00;;;;;21.15;37.78;100690.63;5066631;28;51028;-47
2022/03/13 01:30:17;;;;;;;;;2.25;2.00;;;;;21.14;37.45;100685.34;5061182;27;51097;-48
2022/03/13 01:32:42;;;;;;;;;3.00;2.25;;;;;21.11;37.45;100683.91;5064415;28;51394;-51
2022/03/13 01:35:08;;;;;;;;;3.00;2.00;;;;;21.09;37.76;100672.28;5064830;28;51130;-48
2022/03/13 01:37:40;;;;;;;;;2.00;2.00;;;;;21.08;37.19;100676.13;5068340;28;51839;-52
2022/03/13 01:40:11;;;;;;;;;1.75;1.75;;;;;21.08;37.56;100675.28;5056788;28;51466;-51
2022/03/13 01:42:40;;;;;;;;;3.00;3.00;;;;;21.06;37.29;100669.16;5063950;28;51035;-51
2022/03/13 01:45:10;;;;;;;;;2.00;2.00;;;;;21.04;37.86;100664.69;5065251;28;51245;-51
2022/03/13 01:47:36;;;;;;;;;2.00;2.00;;;;;21.04;37.34;100663.88;5058846;27;53159;-50
2022/03/13 01:50:02;;;;;;;;;2.00;2.00;;;;;21.05;37.71;100662.81;5058836;28;51101;-50
2022/03/13 01:52:28;;;;;;;;;2.00;2.00;;;;;21.02;37.46;100661.34;5065943;27;51132;-51
2022/03/13 01:54:57;;;;;;;;;1.50;1.25;;;;;21.02;37.56;100661.34;5072035;28;51147;-50
2022/03/13 01:57:24;;;;;;;;;4.00;3.50;;;;;21.01;37.23;100659.66;5060721;27;51260;-50
2022/03/13 01:59:56;;;;;;;;;3.50;2.25;;;;;21.00;37.53;100659.91;5070533;28;51397;-51
2022/03/13 02:02:23;;;;;;;;;2.00;2.00;;;;;20.98;37.73;100656.53;5058487;28;51072;-49
2022/03/13 02:04:54;;;;;;;;;2.00;2.00;;;;;20.97;37.46;100652.94;5075070;27;51176;-52
2022/03/13 02:07:25;;;;;;;;;2.75;2.00;;;;;20.96;37.78;100647.69;5070592;28;51254;-49
2022/03/13 02:09:51;;;;;;;;;3.00;2.75;;;;;20.95;37.61;100648.75;5071673;27;51920;-50
2022/03/13 02:12:19;;;;;;;;;4.00;2.00;;;;;20.94;37.32;100644.28;5065052;27;51693;-52
2022/03/13 02:14:45;;;;;;;;;3.50;0.75;;;;;20.94;37.39;100638.78;5062396;28;51144;-50
2022/03/13 02:17:10;;;;;;;;;3.00;3.00;;;;;20.92;37.61;100633.50;5067882;28;51112;-52
2022/03/13 02:19:35;;;;;;;;;4.00;3.00;;;;;20.92;37.45;100632.66;5067939;28;51054;-50
2022/03/13 02:22:01;;;;;;;;;2.00;2.00;;;;;20.91;37.44;100625.47;5062535;27;51786;-51
2022/03/13 02:24:28;;;;;;;;;4.00;2.25;;;;;20.89;37.38;100628.47;5074849;27;51201;-51
2022/03/13 02:27:05;;;;;;;;;4.00;3.00;;;;;20.89;37.85;100611.09;5069168;28;51843;-52
2022/03/13 02:29:31;;;;;;;;;2.00;2.00;;;;;20.86;37.49;100617.94;5062039;27;51405;-51
2022/03/13 02:31:58;;;;;;;;;2.75;2.75;;;;;20.86;37.48;100617.94;5083072;27;51234;-52
2022/03/13 02:34:24;;;;;;;;;3.50;3.50;;;;;20.86;37.52;100608.81;5072943;28;51402;-50
2022/03/13 02:36:49;;;;;;;;;2.00;1.75;;;;;20.85;37.73;100604.41;5070536;28;52002;-48
2022/03/13 02:39:16;;;;;;;;;3.00;2.50;;;;;20.83;37.77;100604.59;5060373;28;51026;-51
2022/03/13 02:41:42;;;;;;;;;2.75;2.75;;;;;20.83;37.67;100601.00;5066545;28;51059;-51
2022/03/13 02:44:11;;;;;;;;;2.50;2.50;;;;;20.83;37.82;100598.25;5065644;28;51059;-46
2022/03/13 02:46:53;;;;;;;;;4.00;2.00;;;;;20.80;37.38;100591.31;5070742;28;51789;-48
2022/03/13 02:49:21;;;;;;;;;4.00;3.00;;;;;20.79;37.75;100597.88;5061369;28;51246;-48
2022/03/13 02:51:52;;;;;;;;;3.00;3.00;;;;;20.78;37.46;100598.13;5058482;28;50998;-50
2022/03/13 02:54:18;;;;;;;;;3.75;3.00;;;;;20.78;37.85;100598.13;5073666;28;51342;-48
2022/03/13 02:56:45;;;;;;;;;2.75;2.25;;;;;20.77;37.49;100591.78;5068846;28;51072;-48
2022/03/13 02:59:12;;;;;;;;;3.25;2.00;;;;;20.75;37.72;100589.25;5073047;28;52049;-48
2022/03/13 03:01:38;;;;;;;;;4.00;2.75;;;;;20.74;37.86;100586.75;5059021;28;51183;-51
2022/03/13 03:04:04;;;;;;;;;2.00;2.00;;;;;20.74;37.63;100590.34;5064517;28;50976;-51
2022/03/13 03:06:32;;;;;;;;;3.50;3.50;;;;;20.73;37.75;100593.28;5057889;27;51907;-50
2022/03/13 03:09:00;;;;;;;;;1.00;1.00;;;;;20.71;37.68;100590.75;5067411;28;51696;-50
2022/03/13 03:11:26;;;;;;;;;3.50;3.50;;;;;20.71;37.98;100587.19;5063905;28;51193;-50
2022/03/13 03:13:51;;;;;;;;;3.00;3.00;;;;;20.69;37.63;100581.91;5071763;27;50973;-49
2022/03/13 03:16:16;;;;;;;;;3.75;3.75;;;;;20.69;37.51;100590.16;5068301;28;52285;-49
2022/03/13 03:18:42;;;;;;;;;2.25;2.25;;;;;20.67;37.69;100592.31;5061739;28;51077;-51
2022/03/13 03:21:07;;;;;;;;;2.00;2.00;;;;;20.67;37.36;100585.97;5058951;28;51149;-47
2022/03/13 03:23:33;;;;;;;;;3.25;2.00;;;;;20.66;37.69;100585.13;5075520;28;51227;-50
2022/03/13 03:25:59;;;;;;;;;3.00;2.00;;;;;20.66;37.44;100587.03;5060796;27;51711;-51
2022/03/13 03:28:24;;;;;;;;;3.50;3.50;;;;;20.65;37.34;100583.44;5071154;28;51026;-52
2022/03/13 03:30:49;;;;;;;;;3.00;3.00;;;;;20.65;37.64;100579.84;5066709;27;51005;-51
2022/03/13 03:33:15;;;;;;;;;3.75;3.50;;;;;20.64;37.84;100583.69;5058402;28;51200;-50
2022/03/13 03:35:41;;;;;;;;;3.50;3.50;;;;;20.63;37.45;100588.31;5066778;27;51904;-50
2022/03/13 03:38:07;;;;;;;;;3.00;3.00;;;;;20.62;37.77;100577.53;5074390;27;51111;-50
2022/03/13 03:40:34;;;;;;;;;4.00;2.75;;;;;20.61;38.03;100579.44;5064833;28;51074;-50
2022/03/13 03:43:03;;;;;;;;;2.25;2.25;;;;;20.60;37.72;100575.03;5065382;28;51401;-49
2022/03/13 03:45:29;;;;;;;;;3.75;3.75;;;;;20.59;37.80;100573.34;5058562;28;51959;-53
2022/03/13 03:47:54;;;;;;;;;3.00;3.00;;;;;20.60;37.44;100576.94;5058154;28;51050;-52
2022/03/13 03:50:20;;;;;;;;;2.75;2.75;;;;;20.58;37.89;100568.91;5063716;28;51093;-50
2022/03/13 03:52:46;;;;;;;;;2.75;2.75;;;;;20.59;37.89;100575.25;5060605;28;51236;-47
2022/03/13 03:55:12;;;;;;;;;3.50;3.00;;;;;20.57;37.84;100578.25;5075782;28;51940;-53
2022/03/13 03:57:38;;;;;;;;;4.00;3.00;;;;;20.56;37.57;100573.81;5066747;27;52485;-51
2022/03/13 04:00:06;;;;;;;;;3.00;3.00;;;;;20.55;37.82;100569.38;5072102;28;51049;-50
2022/03/13 04:02:32;;;;;;;;;4.00;2.50;;;;;20.54;37.50;100570.44;5061652;28;51300;-52
2022/03/13 04:04:57;;;;;;;;;3.25;2.00;;;;;20.54;37.90;100567.69;5068635;27;51164;-51
2022/03/13 04:07:23;;;;;;;;;4.25;2.75;;;;;20.54;37.47;100572.38;5062726;28;51137;-51
2022/03/13 04:09:48;;;;;;;;;2.25;2.25;;;;;20.52;37.52;100572.56;5060362;28;50998;-48
2022/03/13 04:12:14;;;;;;;;;3.25;3.25;;;;;20.53;37.84;100568.78;5069120;28;51377;-46
2022/03/13 04:14:39;;;;;;;;;3.00;3.00;;;;;20.52;37.83;100571.72;5067363;28;51887;-50
2022/03/13 04:17:05;;;;;;;;;2.50;2.50;;;;;20.50;37.63;100569.22;5067519;27;51032;-50
2022/03/13 04:19:30;;;;;;;;;1.00;1.00;;;;;20.51;37.48;100573.66;5075083;28;50992;-50
2022/03/13 04:21:56;;;;;;;;;3.00;3.00;;;;;20.49;37.40;100578.53;5065388;27;51300;-53
2022/03/13 04:24:22;;;;;;;;;3.75;2.75;;;;;20.49;37.83;100583.19;5058851;28;51147;-50
2022/03/13 04:26:49;;;;;;;;;2.50;2.50;;;;;20.48;37.59;100585.13;5063935;28;51210;-49
2022/03/13 04:29:16;;;;;;;;;3.75;3.25;;;;;20.47;37.94;100583.44;5081059;27;51073;-49
2022/03/13 04:31:42;;;;;;;;;1.75;1.75;;;;;20.46;37.26;100585.34;5073689;27;51147;-50
2022/03/13 04:34:08;;;;;;;;;4.00;3.25;;;;;20.45;37.79;100589.16;5068975;28;51841;-49
2022/03/13 04:36:35;;;;;;;;;3.25;3.25;;;;;20.45;37.63;100591.09;5061832;27;51181;-52
2022/03/13 04:39:02;;;;;;;;;1.50;1.50;;;;;20.43;37.44;100587.72;5056995;28;51211;-52
2022/03/13 04:41:28;;;;;;;;;2.25;2.25;;;;;20.44;37.74;100583.91;5062334;28;51202;-46
2022/03/13 04:43:53;;;;;;;;;2.75;2.00;;;;;20.43;37.39;100584.97;5063630;28;52028;-50
2022/03/13 04:46:19;;;;;;;;;2.00;2.00;;;;;20.42;37.47;100583.22;5065829;28;51191;-50
2022/03/13 04:48:44;;;;;;;;;2.00;2.00;;;;;20.41;37.82;100587.06;5061668;27;51103;-51
2022/03/13 04:51:10;;;;;;;;;4.25;3.50;;;;;20.40;37.46;100590.88;5068184;28;51071;-49
2022/03/13 04:53:35;;;;;;;;;3.00;3.00;;;;;20.40;37.43;100586.22;5070443;28;51039;-47
2022/03/13 04:56:00;;;;;;;;;2.00;2.00;;;;;20.39;37.56;100581.78;5058556;28;51077;-50
2022/03/13 04:58:26;;;;;;;;;2.00;2.00;;;;;20.38;37.63;100585.59;5070924;28;51108;-50
2022/03/13 05:00:52;;;;;;;;;2.00;2.00;;;;;20.39;37.75;100578.19;5065381;27;50958;-52
2022/03/13 05:03:17;;;;;;;;;4.00;2.25;;;;;20.38;37.60;100577.34;5071299;28;51766;-51
2022/03/13 05:05:42;;;;;;;;;2.25;1.25;;;;;20.38;37.48;100579.28;5059554;28;51045;-53
2022/03/13 05:08:18;;;;;;;;;3.00;2.00;;;;;20.37;37.44;100574.84;5065911;28;51112;-50
2022/03/13 05:10:46;;;;;;;;;2.00;2.00;;;;;20.35;37.24;100569.56;5068743;28;51312;-49
2022/03/13 05:13:14;;;;;;;;;3.00;3.00;;;;;20.35;37.41;100566.81;5063542;28;51944;-49
2022/03/13 05:15:41;;;;;;;;;2.00;2.00;;;;;20.34;37.43;100565.13;5056692;27;51404;-51
2022/03/13 05:18:07;;;;;;;;;3.25;3.25;;;;;20.33;37.40;100559.88;5074768;27;50999;-51
2022/03/13 05:20:34;;;;;;;;;1.75;1.50;;;;;20.32;37.89;100561.78;5067648;27;51145;-49
2022/03/13 05:23:00;;;;;;;;;3.00;2.75;;;;;20.32;37.33;100571.91;5063824;28;52034;-47
2022/03/13 05:25:28;;;;;;;;;3.25;1.50;;;;;20.32;37.49;100571.91;5061857;28;51295;-48
2022/03/13 05:27:53;;;;;;;;;2.50;2.50;;;;;20.31;37.60;100565.56;5057420;28;51142;-51
2022/03/13 05:30:20;;;;;;;;;2.00;2.00;;;;;20.31;37.40;100570.22;5069619;27;51067;-46
2022/03/13 05:32:46;;;;;;;;;3.00;3.00;;;;;20.30;37.48;100574.06;5070805;27;51807;-51
2022/03/13 05:35:12;;;;;;;;;2.00;2.00;;;;;20.30;37.76;100579.56;5060413;28;51377;-49
2022/03/13 05:37:38;;;;;;;;;2.00;2.00;;;;;20.29;37.31;100580.63;5066561;27;51109;-48
2022/03/13 05:40:05;;;;;;;;;3.00;3.00;;;;;20.30;37.71;100579.56;5063558;28;51088;-48
2022/03/13 05:42:31;;;;;;;;;1.00;1.00;;;;;20.28;37.82;100574.28;5064610;27;51215;-49
2022/03/13 05:44:56;;;;;;;;;2.50;2.50;;;;;20.28;37.54;100576.19;5068453;28;51629;-48
2022/03/13 05:47:21;;;;;;;;;2.00;2.00;;;;;20.27;37.35;100583.59;5067841;28;51194;-51
2022/03/13 05:49:48;;;;;;;;;2.25;2.00;;;;;20.26;37.75;100587.44;5065446;27;51216;-49
2022/03/13 05:52:14;;;;;;;;;2.00;2.00;;;;;20.26;37.46;100586.59;5056944;28;51816;-51
2022/03/13 05:54:40;;;;;;;;;1.50;1.50;;;;;20.25;37.72;100576.66;5057378;28;51380;-52
2022/03/13 05:57:07;;;;;;;;;1.25;1.25;;;;;20.24;37.75;100586.81;5066920;28;51292;-53
2022/03/13 05:59:35;;;;;;;;;2.00;2.00;;;;;20.25;37.54;100593.16;5059434;28;51187;-51
2022/03/13 06:02:04;;;;;;;;;2.75;1.25;;;;;20.23;37.38;100582.41;5070140;28;51041;-52
2022/03/13 06:04:32;;;;;;;;;1.50;1.50;;;;;20.23;37.65;100584.31;5059913;28;51339;-47
2022/03/13 06:06:57;;;;;;;;;1.00;1.00;;;;;20.23;37.53;100592.56;5062341;28;51104;-49
2022/03/13 06:09:23;;;;;;;;;4.00;3.00;;;;;20.23;37.70;100590.66;5060088;28;51175;-47
2022/03/13 06:11:48;;;;;;;;;2.00;2.00;;;;;20.21;37.57;100598.25;5072649;27;51878;-53
2022/03/13 06:14:14;;;;;;;;;3.00;3.00;;;;;20.21;37.58;100597.41;5060640;27;51334;-50
2022/03/13 06:16:39;;;;;;;;;3.50;2.00;;;;;20.21;37.31;100600.16;5066639;28;51209;-49
2022/03/13 06:19:05;;;;;;;;;3.00;2.00;;;;;20.19;37.68;100595.75;5056705;27;51073;-49
2022/03/13 06:21:30;;;;;;;;;3.00;1.50;;;;;20.19;37.39;100603.16;5055948;28;51788;-52
2022/03/13 06:23:55;;;;;;;;;1.50;1.50;;;;;20.19;37.74;100601.25;5069094;28;50989;-52
2022/03/13 06:26:21;;;;;;;;;2.50;2.50;;;;;20.18;37.30;100594.06;5067652;27;50994;-48
2022/03/13 06:28:46;;;;;;;;;2.25;2.00;;;;;20.19;37.58;100612.25;5063836;27;51206;-46
2022/03/13 06:31:12;;;;;;;;;1.00;1.00;;;;;20.17;37.37;100614.38;5075380;27;51786;-49
2022/03/13 06:33:38;;;;;;;;;0.00;0.00;;;;;20.17;37.76;100616.28;5068685;27;51549;-50
2022/03/13 06:36:03;;;;;;;;;1.25;1.25;;;;;20.16;37.72;100612.69;5055950;28;51051;-50
2022/03/13 06:38:29;;;;;;;;;1.00;1.00;;;;;20.14;37.34;100614.84;5060955;28;51314;-51
2022/03/13 06:40:54;;;;;;;;;2.00;2.00;;;;;20.14;37.46;100614.84;5066157;28;52188;-53
2022/03/13 06:43:20;;;;;;;;;1.00;1.00;;;;;20.14;37.66;100614.00;5068077;27;51126;-49
2022/03/13 06:45:46;;;;;;;;;2.50;1.50;;;;;20.13;37.67;100615.91;5069049;27;51225;-51
2022/03/13 06:48:13;;;;;;;;;2.75;2.75;;;;;20.13;37.59;100621.41;5062930;28;51204;-51
2022/03/13 06:50:39;;;;;;;;;2.00;2.00;;;;;20.13;37.59;100624.16;5065548;28;52701;-51
2022/03/13 06:53:04;;;;;;;;;2.00;2.00;;;;;20.13;37.17;100617.81;5074111;28;51033;-50
2022/03/13 06:55:30;;;;;;;;;3.00;1.50;;;;;20.13;37.51;100613.16;5060429;27;51246;-51
2022/03/13 06:57:55;;;;;;;;;1.00;1.00;;;;;20.12;37.19;100616.13;5069713;27;51093;-49
2022/03/13 07:00:20;;;;;;;;;2.00;2.00;;;;;20.10;37.20;100613.59;5068164;28;51216;-51
2022/03/13 07:02:46;;;;;;;;;2.00;2.00;;;;;20.11;37.07;100618.06;5064741;28;51222;-53
2022/03/13 07:05:13;;;;;;;;;3.00;2.00;;;;;20.11;37.34;100614.44;5071052;27;51086;-52
2022/03/13 07:07:38;;;;;;;;;3.00;1.50;;;;;20.11;37.45;100611.69;5072264;28;51055;-49
2022/03/13 07:10:06;;;;;;;;;1.50;1.50;;;;;20.10;37.33;100621.84;5067331;28;51013;-50
2022/03/13 07:12:31;;;;;;;;;3.00;2.00;;;;;20.11;37.54;100620.81;5076377;27;51770;-51
2022/03/13 07:14:57;;;;;;;;;3.00;1.50;;;;;20.09;37.62;100617.41;5076145;28;51057;-52
2022/03/13 07:17:23;;;;;;;;;4.00;1.50;;;;;20.09;37.16;100617.41;5061782;27;51089;-48
2022/03/13 07:19:48;;;;;;;;;0.75;0.75;;;;;20.07;37.47;100616.78;5073188;28;51090;-49
2022/03/13 07:22:14;;;;;;;;;1.75;1.75;;;;;20.07;37.65;100616.78;5067565;27;51803;-47
2022/03/13 07:24:41;;;;;;;;;1.50;1.50;;;;;20.08;37.21;100615.72;5059389;28;51098;-49
2022/03/13 07:27:07;;;;;;;;;2.00;2.00;;;;;20.07;37.48;100611.28;5064794;28;51332;-49
2022/03/13 07:29:33;;;;;;;;;1.50;1.50;;;;;20.06;37.11;100604.13;5073507;27;51136;-52
2022/03/13 07:31:58;;;;;;;;;2.00;2.00;;;;;20.06;37.56;100609.63;5072305;28;51199;-52
2022/03/13 07:34:24;;;;;;;;;2.00;1.00;;;;;20.06;37.54;100609.63;5062542;28;51466;-53
2022/03/13 07:36:51;;;;;;;;;1.00;1.00;;;;;20.05;37.68;100615.34;5068413;27;51255;-51
2022/03/13 07:39:21;;;;;;;;;2.00;2.00;;;;;20.05;37.47;100613.44;5068039;28;51810;-48
2022/03/13 07:41:46;;;;;;;;;2.50;2.00;;;;;20.04;37.40;100630.16;5060460;28;51061;-48
2022/03/13 07:44:12;;;;;;;;;1.50;1.50;;;;;20.05;37.03;100634.59;5062239;27;51370;-48
2022/03/13 07:46:38;;;;;;;;;2.00;2.00;;;;;20.02;36.63;100635.06;5062052;28;51273;-50
2022/03/13 07:49:03;;;;;;;;;1.00;1.00;;;;;20.00;36.69;100637.16;5069567;28;51651;-49
2022/03/13 07:51:29;;;;;;;;;3.00;3.00;;;;;19.98;36.27;100639.28;5068026;27;51246;-52
2022/03/13 07:53:54;;;;;;;;;3.50;2.00;;;;;19.94;35.58;100635.31;5067240;27;51233;-51
2022/03/13 07:56:19;;;;;;;;;2.00;2.00;;;;;19.90;35.78;100632.16;5063219;28;51228;-52
2022/03/13 07:58:45;;;;;;;;;1.75;1.75;;;;;19.87;35.44;100624.38;5081661;27;52611;-53
2022/03/13 08:01:11;;;;;;;;;1.75;1.75;;;;;19.87;36.10;100618.88;5066813;28;51165;-49
2022/03/13 08:03:38;;;;;;;;;2.50;2.50;;;;;19.89;35.77;100616.72;5069603;28;51170;-52
2022/03/13 08:06:03;;;;;;;;;2.00;2.00;;;;;19.95;35.87;100626.84;5065840;27;51103;-49
2022/03/13 08:08:29;;;;;;;;;1.00;1.00;;;;;20.04;35.54;100619.16;5078392;27;51626;-51
2022/03/13 08:10:54;;;;;;;;;1.00;1.00;;;;;20.13;35.71;100632.41;5070967;28;51045;-53
2022/03/13 08:13:19;;;;;;;;;1.00;1.00;;;;;20.22;36.21;100619.22;5060823;28;51072;-51
2022/03/13 08:15:45;;;;;;;;;1.75;1.75;;;;;20.32;36.00;100610.41;5074141;27;51162;-50
2022/03/13 08:18:12;;;;;;;;;3.25;1.00;;;;;20.42;35.77;100617.13;5068797;27;51689;-50
2022/03/13 08:20:38;;;;;;;;;1.25;1.25;;;;;20.52;35.59;100611.09;5079345;27;51133;-51
2022/03/13 08:23:03;;;;;;;;;1.50;1.25;;;;;20.63;35.48;100610.34;5074364;27;51318;-51
2022/03/13 08:25:29;;;;;;;;;2.25;1.50;;;;;20.75;36.01;100610.44;5059453;28;51195;-51
2022/03/13 08:27:55;;;;;;;;;1.25;1.25;;;;;20.83;35.58;100601.00;5060547;27;51999;-49
2022/03/13 08:30:21;;;;;;;;;1.00;1.00;;;;;20.88;35.55;100601.16;5064759;27;51257;-54
2022/03/13 08:32:46;;;;;;;;;2.00;2.00;;;;;20.90;35.74;100612.78;5062352;27;51294;-50
2022/03/13 08:35:12;;;;;;;;;1.00;1.00;;;;;20.91;35.91;100598.78;5065588;27;51310;-53
2022/03/13 08:37:38;;;;;;;;;1.25;0.75;;;;;20.91;36.26;100604.28;5062239;28;51901;-47
2022/03/13 08:40:04;;;;;;;;;0.75;0.75;;;;;20.91;36.30;100603.44;5065927;28;51022;-48
2022/03/13 08:42:32;;;;;;;;;1.00;1.00;;;;;20.89;36.19;100597.34;5067374;27;50985;-50
2022/03/13 08:44:57;;;;;;;;;3.00;3.00;;;;;20.88;36.18;100599.25;5068564;27;52278;-53
2022/03/13 08:47:23;;;;;;;;;2.00;1.50;;;;;20.88;35.85;100601.16;5069574;28;52714;-52
2022/03/13 08:49:50;;;;;;;;;3.25;2.25;;;;;20.90;35.77;100599.03;5065403;28;51055;-51
2022/03/13 08:52:16;;;;;;;;;1.00;1.00;;;;;20.95;36.03;100607.44;5058386;28;51719;-50
2022/03/13 08:54:41;;;;;;;;;1.75;1.75;;;;;21.04;35.53;100608.78;5060340;28;51312;-51
2022/03/13 08:57:07;;;;;;;;;1.50;1.50;;;;;21.13;35.49;100612.91;5063850;28;51826;-54
2022/03/13 08:59:35;;;;;;;;;4.00;2.00;;;;;21.23;35.42;100609.59;5067959;27;51112;-49
2022/03/13 09:02:00;;;;;;;;;1.50;1.50;;;;;21.29;35.25;100611.47;5067360;27;51238;-53
2022/03/13 09:04:27;;;;;;;;;1.75;1.00;;;;;21.31;35.45;100601.88;5067697;27;51401;-52
2022/03/13 09:06:54;;;;;;;;;2.00;2.00;;;;;21.34;35.21;100614.34;5068716;28;51718;-53
2022/03/13 09:09:20;;;;;;;;;1.25;1.25;;;;;21.33;35.69;100620.94;5065417;28;51350;-55
2022/03/13 09:11:47;;;;;;;;;2.75;1.50;;;;;21.32;35.18;100616.50;5065634;28;51204;-48
2022/03/13 09:14:13;;;;;;;;;1.75;1.75;;;;;21.29;35.76;100622.47;5069305;27;51052;-49
2022/03/13 09:16:39;;;;;;;;;1.00;1.00;;;;;21.25;35.74;100621.22;5066620;27;51858;-54
2022/03/13 09:19:05;;;;;;;;;1.00;1.00;;;;;21.22;35.81;100611.50;5064301;28;50932;-55
2022/03/13 09:21:31;;;;;;;;;1.25;1.25;;;;;21.20;36.10;100604.56;5062933;28;51161;-53
2022/03/13 09:23:57;;;;;;;;;1.00;1.00;;;;;21.18;36.42;100599.28;5064411;27;51343;-54
2022/03/13 09:26:22;;;;;;;;;1.00;1.00;;;;;21.18;36.50;100614.97;5066038;27;51117;-54
2022/03/13 09:28:48;;;;;;;;;2.50;1.50;;;;;21.15;35.96;100610.75;5075397;27;51164;-53
2022/03/13 09:31:13;;;;;;;;;1.00;1.00;;;;;21.17;35.86;100605.88;5066452;27;51169;-54
2022/03/13 09:33:38;;;;;;;;;1.00;0.25;;;;;21.20;36.31;100594.38;5067091;28;51147;-53
2022/03/13 09:36:04;;;;;;;;;1.25;1.25;;;;;21.26;36.60;100607.28;5064867;28;53523;-53
2022/03/13 09:38:29;;;;;;;;;1.25;1.25;;;;;21.28;36.27;100610.63;5066187;27;51186;-53
2022/03/13 09:40:55;;;;;;;;;1.00;1.00;;;;;21.28;36.60;100615.28;5073483;27;51191;-54
2022/03/13 09:43:21;;;;;;;;;1.00;1.00;;;;;21.23;36.75;100607.69;5068529;27;51292;-55
2022/03/13 09:45:48;;;;;;;;;1.00;1.00;;;;;21.21;36.63;100607.09;5065310;28;52691;-54
2022/03/13 09:48:15;;;;;;;;;0.75;0.75;;;;;21.18;37.14;100598.44;5067095;28;51668;-54
2022/03/13 09:50:42;;;;;;;;;2.50;1.25;;;;;21.14;37.62;100597.22;5063788;27;51154;-53
2022/03/13 09:53:08;;;;;;;;;1.50;1.50;;;;;21.11;37.34;100611.47;5059607;28;51148;-53
2022/03/13 09:55:34;;;;;;;;;1.00;1.00;;;;;21.08;37.56;100604.50;5063731;27;51908;-53
2022/03/13 09:57:59;;;;;;;;;2.75;1.25;;;;;21.04;37.82;100614.28;5058029;28;51546;-56
2022/03/13 10:00:26;;;;;;;;;3.00;1.50;;;;;21.02;38.09;100616.44;5062839;28;51262;-50
2022/03/13 10:02:54;;;;;;;;;3.00;2.00;;;;;20.99;37.91;100617.75;5072001;28;51549;-52
2022/03/13 10:05:22;;;;;;;;;4.00;1.00;;;;;21.00;38.30;100604.81;5063795;27;52002;-53
2022/03/13 10:08:00;;;;;;;;;2.50;2.50;;;;;21.06;37.80;100611.34;5061949;27;51432;-53
2022/03/13 10:10:28;;;;;;;;;1.00;1.00;;;;;21.12;38.34;100602.97;5064118;28;51191;-49
2022/03/13 10:12:54;;;;;;;;;4.25;3.50;;;;;21.17;38.27;100605.03;5071567;28;51331;-53
2022/03/13 10:15:20;;;;;;;;;1.75;0.50;;;;;21.15;38.38;100608.00;5065546;27;51958;-53
2022/03/13 10:17:45;;;;;;;;;1.25;1.25;;;;;21.15;38.68;100604.41;5058279;27;51053;-52
2022/03/13 10:20:23;;;;;;;;;4.00;2.00;;;;;21.12;38.31;100607.63;5064842;28;51074;-51
2022/03/13 10:22:54;;;;;;;;;1.75;1.75;;;;;21.08;38.45;100599.00;5070584;27;51126;-52
2022/03/13 10:25:34;;;;;;;;;2.00;2.00;;;;;21.04;38.75;100606.03;5067467;27;51857;-53
2022/03/13 10:28:12;;;;;;;;;3.50;3.00;;;;;21.00;38.36;100604.81;5066573;28;51076;-49
2022/03/13 10:30:37;;;;;;;;;1.75;1.75;;;;;20.95;38.92;100594.53;5070019;27;51904;-53
2022/03/13 10:33:02;;;;;;;;;2.25;2.25;;;;;20.92;39.04;100596.88;5067528;28;51112;-53
2022/03/13 10:35:28;;;;;;;;;1.50;1.50;;;;;20.89;38.70;100595.44;5062729;28;51783;-48
2022/03/13 10:37:55;;;;;;;;;1.00;1.00;;;;;20.90;38.78;100591.59;5069017;27;50946;-53
2022/03/13 10:40:23;;;;;;;;;1.00;1.00;;;;;20.96;38.91;100595.34;5069085;28;51340;-51
2022/03/13 10:42:50;;;;;;;;;1.25;0.75;;;;;21.03;38.42;100585.06;5067431;27;51123;-53
2022/03/13 10:45:36;;;;;;;;;0.75;0.50;;;;;21.08;38.97;100587.16;5064182;28;52011;-54
2022/03/13 10:48:29;;;;;;;;;2.25;1.75;;;;;21.08;38.62;100589.91;5060727;27;51446;-54
2022/03/13 10:50:59;;;;;;;;;5.00;2.00;;;;;21.04;38.74;100587.59;5070443;28;51173;-52
2022/03/13 10:53:27;;;;;;;;;1.00;1.00;;;;;21.01;38.87;100584.47;5067296;27;51221;-53
2022/03/13 10:56:06;;;;;;;;;1.50;1.50;;;;;20.96;39.23;100576.09;5063750;27;51304;-51
2022/03/13 10:58:34;;;;;;;;;2.00;2.00;;;;;20.93;38.96;100582.03;5059484;28;51478;-50
2022/03/13 11:01:11;;;;;;;;;3.75;2.75;;;;;20.90;39.58;100583.34;5066777;28;51276;-54
2022/03/13 11:03:47;;;;;;;;;2.00;1.00;;;;;20.88;39.13;100579.16;5062055;28;51397;-53
2022/03/13 11:06:12;;;;;;;;;2.00;2.00;;;;;20.87;39.63;100588.47;5062037;28;52768;-53
2022/03/13 11:08:39;;;;;;;;;3.25;2.75;;;;;20.88;39.67;100595.66;5059374;28;52388;-54
2022/03/13 11:11:06;;;;;;;;;1.75;1.75;;;;;20.94;39.67;100592.81;5067421;28;52008;-54
2022/03/13 11:13:33;;;;;;;;;3.00;2.75;;;;;21.01;39.54;100598.25;5069218;27;51188;-55
2022/03/13 11:15:58;;;;;;;;;3.50;1.00;;;;;21.07;39.96;100585.47;5058115;27;51075;-53
2022/03/13 11:18:30;;;;;;;;;3.00;2.00;;;;;21.09;40.12;100586.91;5063514;28;51235;-50
2022/03/13 11:20:56;;;;;;;;;2.75;2.25;;;;;21.09;39.58;100592.41;5067641;27;51130;-50
2022/03/13 11:23:23;;;;;;;;;3.25;2.25;;;;;21.07;40.24;100588.22;5066625;27;51136;-51